METAR Data
IDs: Format: Raw Decoded Include TAF

Data at: 2041 UTC 21 Sep 2021

KAEL 212035Z AUTO 33011G17KT 280V020 10SM SCT055 19/07 A3021 RMK AO2
KAEL 212015Z AUTO 31008KT 10SM CLR 18/07 A3022 RMK AO2
KAEL 211955Z AUTO 33010G15KT 300V360 10SM CLR 18/08 A3022 RMK AO2
KAEL 211935Z AUTO 33009G16KT 290V350 10SM SCT043 SCT065 18/09 A3022 RMK AO2
KAEL 211915Z AUTO 33008G15KT 10SM SCT043 SCT050 18/09 A3022 RMK AO2
KAEL 211855Z AUTO 31011G19KT 10SM SCT050 SCT060 19/08 A3022 RMK AO2
KAEL 211835Z AUTO 29008G21KT 270V340 10SM SCT048 SCT060 19/08 A3022 RMK AO2
KAEL 211815Z AUTO 29007KT 250V320 10SM SCT046 19/08 A3023 RMK AO2
KAEL 211755Z AUTO 31007KT 10SM SCT040 19/08 A3023 RMK AO2
KAEL 211735Z AUTO 29010G15KT 10SM SCT040 18/09 A3022 RMK AO2
KAEL 211715Z AUTO 30005KT 10SM CLR 18/10 A3023 RMK AO2
KAEL 211655Z AUTO 30007KT 10SM CLR 18/09 A3023 RMK AO2
KAEL 211635Z AUTO 29004KT 10SM CLR 17/10 A3023 RMK AO2
KAEL 211615Z AUTO 34008KT 10SM CLR 17/11 A3023 RMK AO2
KAEL 211555Z AUTO 29003KT 10SM CLR 16/11 A3023 RMK AO2
KAEL 211535Z AUTO 30004KT 10SM CLR 16/11 A3023 RMK AO2
KAEL 211515Z AUTO 30006KT 10SM CLR 15/11 A3022 RMK AO2
KAEL 211455Z AUTO 31005KT 10SM CLR 14/11 A3021 RMK AO2
KAEL 211435Z AUTO 27006KT 10SM CLR 13/11 A3021 RMK AO2
KAEL 211415Z AUTO 31005KT 10SM CLR 13/11 A3020 RMK AO2
KAEL 211355Z AUTO 28005KT 10SM CLR 12/10 A3018 RMK AO2
KAEL 211335Z AUTO 28004KT 10SM CLR 12/10 A3018 RMK AO2
KAEL 211315Z AUTO 29003KT 10SM CLR 11/09 A3018 RMK AO2
KAEL 211255Z AUTO 29004KT 10SM CLR 10/09 A3017 RMK AO2
KAEL 211235Z AUTO 28004KT 10SM CLR 09/09 A3016 RMK AO2
KAEL 211215Z AUTO 29003KT 10SM CLR 09/09 A3015 RMK AO2
KAEL 211155Z AUTO 29003KT 10SM CLR 09/09 A3013 RMK AO2
KAEL 211135Z AUTO 29004KT 10SM CLR 09/09 A3013 RMK AO2
KAEL 211115Z AUTO 29004KT 10SM CLR 09/09 A3012 RMK AO2
KAEL 211055Z AUTO 29005KT 10SM SCT006 09/09 A3011 RMK AO2
KAEL 211035Z AUTO 29006KT 10SM SCT006 10/09 A3009 RMK AO2
KAEL 211015Z AUTO 30003KT 10SM BKN006 10/09 A3008 RMK AO2
KAEL 210955Z AUTO 30004KT 10SM BKN006 10/10 A3007 RMK AO2
KAEL 210935Z AUTO 30006KT 10SM CLR 10/09 A3006 RMK AO2
KAEL 210915Z AUTO 30005KT 10SM CLR 10/09 A3004 RMK AO2
KAEL 210855Z AUTO 30004KT 10SM CLR 11/10 A3004 RMK AO2
KAEL 210835Z AUTO 29006KT 10SM CLR 11/10 A3003 RMK AO2
KAEL 210815Z AUTO 30006KT 10SM CLR 11/10 A3003 RMK AO2
KAEL 210755Z AUTO 30005KT 10SM CLR 11/10 A3002 RMK AO2
KAEL 210735Z AUTO 29004KT 10SM CLR 11/10 A3002 RMK AO2
KAEL 210715Z AUTO 30004KT 10SM CLR 12/11 A3001 RMK AO2
KAEL 210655Z AUTO 31003KT 10SM SCT060 12/11 A3000 RMK AO2
KAEL 210635Z AUTO 31005KT 10SM SCT044 OVC050 13/11 A3000 RMK AO2
KAEL 210615Z AUTO 32007KT 290V350 10SM SCT042 OVC049 13/11 A3000 RMK AO2
KAEL 210555Z AUTO 33007KT 10SM SCT022 BKN033 OVC049 13/11 A2999 RMK AO2
KAEL 210535Z AUTO 34009G16KT 10SM SCT019 SCT024 OVC031 13/11 A2998 RMK AO2
KAEL 210515Z AUTO 33010G23KT 10SM OVC017 13/11 A2997 RMK AO2
KAEL 210455Z AUTO 32011G16KT 10SM OVC013 13/11 A2995 RMK AO2
KAEL 210435Z AUTO 31008G18KT 280V340 10SM BKN013 OVC023 14/12 A2994 RMK AO2
KAEL 210415Z AUTO 31008KT 10SM BKN015 OVC020 14/13 A2993 RMK AO2
KAEL 210355Z AUTO 30005KT 10SM BKN015 OVC021 14/13 A2992 RMK AO2
KAEL 210335Z AUTO 30006KT 10SM SCT012 OVC020 14/13 A2991 RMK AO2
KAEL 210315Z AUTO 30005KT 10SM OVC019 14/13 A2991 RMK AO2
KAEL 210255Z AUTO 31007KT 10SM BKN017 14/13 A2991 RMK AO2